Time;durP1;ratioP1;P1;durP2;ratioP2;P2;SDS_P1;SDS_P2;PMS_P1;PMS_P2;Temp;Humidity;BMP_temperature;BMP_pressure;BME280_temperature;BME280_humidity;BME280_pressure;Samples;Min_cycle;Max_cycle;Signal;HPM_P1;HPM_P2
2023/10/30 00:01:50;;;;;;;1.23;1.13;;;;;;;21.88;15.16;101739.47;5091777;28;20086;-48
2023/10/30 00:04:16;;;;;;;2.28;1.33;;;;;;;21.92;14.69;101739.75;5074936;28;20064;-47
2023/10/30 00:06:42;;;;;;;2.30;1.42;;;;;;;21.66;14.57;101733.28;5072842;28;20470;-49
2023/10/30 00:09:09;;;;;;;3.00;1.50;;;;;;;21.82;14.70;101734.19;5072421;28;20106;-51
2023/10/30 00:11:36;;;;;;;4.55;2.20;;;;;;;21.62;14.78;101737.59;5085727;28;20038;-53
2023/10/30 00:14:04;;;;;;;1.90;1.67;;;;;;;21.61;14.64;101733.22;5093113;28;20405;-53
2023/10/30 00:16:30;;;;;;;6.10;2.00;;;;;;;21.52;14.91;101742.94;5092901;28;20047;-49
2023/10/30 00:18:58;;;;;;;3.30;1.63;;;;;;;21.38;15.04;101733.50;5092773;28;20024;-52
2023/10/30 00:21:24;;;;;;;2.53;1.38;;;;;;;21.31;15.21;101737.25;5084688;28;20025;-50
2023/10/30 00:23:51;;;;;;;2.63;1.98;;;;;;;21.43;15.12;101728.13;5076578;28;20364;-50
2023/10/30 00:26:17;;;;;;;1.77;1.50;;;;;;;21.24;15.63;101728.44;5075631;28;20438;-51
2023/10/30 00:28:43;;;;;;;3.55;2.13;;;;;;;21.22;15.28;101718.91;5084435;28;20408;-50
2023/10/30 00:31:09;;;;;;;2.63;1.45;;;;;;;21.22;15.29;101733.34;5092078;28;21555;-50
2023/10/30 00:33:36;;;;;;;2.08;1.27;;;;;;;21.07;15.12;101730.44;5092643;28;20036;-48
2023/10/30 00:36:02;;;;;;;1.70;1.10;;;;;;;20.98;15.44;101731.94;5092261;28;20424;-50
2023/10/30 00:38:28;;;;;;;2.28;1.23;;;;;;;20.98;15.55;101734.66;5091836;28;20119;-50
2023/10/30 00:40:56;;;;;;;2.00;1.10;;;;;;;21.06;16.50;101731.50;5079529;28;20040;-49
2023/10/30 00:43:22;;;;;;;2.33;1.30;;;;;;;20.93;16.16;101734.59;5091684;28;20028;-52
2023/10/30 00:45:48;;;;;;;1.45;0.98;;;;;;;20.90;15.66;101735.13;5092367;28;20032;-51
2023/10/30 00:48:14;;;;;;;2.95;0.90;;;;;;;20.93;16.12;101731.88;5092069;28;20044;-47
2023/10/30 00:50:40;;;;;;;4.85;1.63;;;;;;;20.55;16.24;101742.56;5091821;28;20028;-52
2023/10/30 00:53:07;;;;;;;2.47;1.10;;;;;;;20.74;16.49;101740.38;5089187;28;20526;-49
2023/10/30 00:55:38;;;;;;;1.20;0.82;;;;;;;20.67;17.92;101737.00;5091006;28;20083;-50
2023/10/30 00:58:07;;;;;;;2.17;1.13;;;;;;;20.56;15.72;101743.38;5089037;28;20362;-51
2023/10/30 01:00:34;;;;;;;2.25;1.33;;;;;;;20.43;16.04;101739.09;5083795;28;20024;-50
2023/10/30 01:03:00;;;;;;;2.20;1.00;;;;;;;20.49;16.80;101743.56;5092246;28;20063;-54
2023/10/30 01:05:26;;;;;;;1.80;1.25;;;;;;;20.47;17.00;101737.53;5092463;28;20020;-56
2023/10/30 01:07:53;;;;;;;1.35;1.02;;;;;;;20.45;17.85;101742.38;5092405;28;20032;-57
2023/10/30 01:10:19;;;;;;;2.83;1.20;;;;;;;20.35;18.28;101738.69;5091728;28;20386;-55
2023/10/30 01:12:45;;;;;;;3.50;1.05;;;;;;;20.28;19.87;101747.84;5092084;28;20144;-57
2023/10/30 01:15:11;;;;;;;2.97;1.40;;;;;;;20.17;19.83;101740.59;5092256;28;20169;-57
2023/10/30 01:17:38;;;;;;;2.10;1.40;;;;;;;20.07;20.18;101742.34;5091903;28;20038;-52
2023/10/30 01:20:05;;;;;;;1.77;1.20;;;;;;;19.94;20.56;101748.94;5091480;28;20024;-57
2023/10/30 01:22:31;;;;;;;1.85;1.40;;;;;;;19.74;21.68;101742.06;5091951;28;20032;-54
2023/10/30 01:24:58;;;;;;;2.60;1.30;;;;;;;19.65;21.95;101737.28;5091980;28;20107;-55
2023/10/30 01:27:24;;;;;;;2.58;1.42;;;;;;;19.48;22.21;101745.34;5092163;28;20020;-56
2023/10/30 01:29:50;;;;;;;2.40;1.40;;;;;;;19.39;22.31;101747.66;5091814;28;20028;-57
2023/10/30 01:32:16;;;;;;;2.03;1.52;;;;;;;19.29;22.37;101750.16;5084936;28;20720;-57
2023/10/30 01:34:44;;;;;;;2.78;1.63;;;;;;;19.16;22.55;101754.00;5075382;28;20028;-56
2023/10/30 01:37:10;;;;;;;1.85;1.55;;;;;;;19.05;23.11;101754.84;5071775;28;20124;-56
2023/10/30 01:39:37;;;;;;;2.78;1.80;;;;;;;18.92;23.33;101758.63;5073512;28;20032;-55
2023/10/30 01:42:04;;;;;;;2.60;1.73;;;;;;;18.84;23.96;101760.91;5091543;28;20081;-56
2023/10/30 01:44:30;;;;;;;3.15;1.70;;;;;;;18.76;24.47;101764.81;5092075;28;20553;-57
2023/10/30 01:46:56;;;;;;;3.03;2.03;;;;;;;18.57;24.78;101766.81;5092039;28;20036;-57
2023/10/30 01:49:23;;;;;;;2.70;1.77;;;;;;;18.49;24.88;101769.88;5091849;28;20024;-55
2023/10/30 01:51:49;;;;;;;2.17;1.70;;;;;;;18.29;25.16;101764.81;5093787;28;20039;-57
2023/10/30 01:54:15;;;;;;;2.90;1.95;;;;;;;18.25;25.77;101773.63;5096096;28;20547;-57
2023/10/30 01:56:42;;;;;;;3.53;2.13;;;;;;;18.05;26.15;101776.69;5094957;28;20028;-56
2023/10/30 01:59:09;;;;;;;3.88;2.00;;;;;;;17.94;26.27;101781.00;5104146;28;20039;-57
2023/10/30 02:01:38;;;;;;;3.60;2.38;;;;;;;17.72;26.89;101780.72;5112750;28;20432;-55
2023/10/30 02:04:05;;;;;;;4.63;2.40;;;;;;;17.63;26.78;101777.47;5095802;28;20069;-56
2023/10/30 02:06:31;;;;;;;3.13;2.38;;;;;;;17.45;27.35;101774.81;5094780;28;20118;-55
2023/10/30 02:08:57;;;;;;;2.92;2.05;;;;;;;17.33;27.43;101782.06;5095445;28;20077;-56
2023/10/30 02:11:23;;;;;;;3.70;2.60;;;;;;;17.19;27.82;101788.66;5095140;28;20035;-56
2023/10/30 02:13:56;;;;;;;5.43;2.47;;;;;;;17.11;28.25;101792.53;5078763;28;20037;-56
2023/10/30 02:16:23;;;;;;;3.95;2.50;;;;;;;17.04;28.20;101797.97;5094856;28;20474;-57
2023/10/30 02:18:50;;;;;;;3.53;2.40;;;;;;;16.93;28.20;101795.19;5086201;28;20040;-55
2023/10/30 02:21:17;;;;;;;5.35;2.53;;;;;;;16.83;28.25;101804.69;5094820;28;20057;-56
2023/10/30 02:23:43;;;;;;;4.35;2.58;;;;;;;16.78;28.26;101809.09;5094545;28;20029;-56
2023/10/30 02:26:09;;;;;;;4.05;2.45;;;;;;;16.64;28.71;101809.19;5088729;28;20095;-56
2023/10/30 02:28:36;;;;;;;2.55;1.92;;;;;;;16.53;28.77;101809.09;5095490;28;20115;-56
2023/10/30 02:31:02;;;;;;;3.17;2.33;;;;;;;16.48;28.88;101812.47;5084006;28;20048;-57
2023/10/30 02:33:28;;;;;;;4.13;2.42;;;;;;;16.37;30.59;101821.28;5086340;28;20113;-55
2023/10/30 02:35:54;;;;;;;4.68;2.40;;;;;;;16.29;30.41;101824.28;5097016;28;20020;-57
2023/10/30 02:38:21;;;;;;;5.10;3.58;;;;;;;16.14;30.43;101824.56;5094887;28;20427;-56
2023/10/30 02:40:47;;;;;;;4.93;3.03;;;;;;;15.98;30.02;101828.63;5095181;28;20386;-56
2023/10/30 02:43:13;;;;;;;4.72;2.40;;;;;;;15.81;29.83;101830.19;5094479;28;20020;-56
2023/10/30 02:45:39;;;;;;;4.30;2.50;;;;;;;15.79;30.12;101832.28;5095401;28;20103;-55
2023/10/30 02:48:06;;;;;;;3.40;1.95;;;;;;;15.58;30.11;101839.63;5095016;28;20051;-56
2023/10/30 02:50:32;;;;;;;3.75;2.67;;;;;;;15.58;30.79;101839.63;5094890;28;20111;-56
2023/10/30 02:52:59;;;;;;;3.42;2.20;;;;;;;15.44;30.95;101846.13;5094176;22;20050;-56
2023/10/30 02:55:26;;;;;;;2.22;1.70;;;;;;;15.42;30.45;101841.97;5077385;28;20033;-55
2023/10/30 02:57:52;;;;;;;2.03;1.42;;;;;;;15.32;29.65;101839.72;5074620;28;20025;-55
2023/10/30 03:00:18;;;;;;;1.42;1.02;;;;;;;15.29;29.71;101848.25;5074776;28;20046;-56
2023/10/30 03:02:45;;;;;;;2.08;1.30;;;;;;;15.19;30.06;101847.88;5091063;28;20028;-56
2023/10/30 03:05:11;;;;;;;2.60;1.52;;;;;;;15.13;30.31;101848.72;5094001;28;20040;-54
2023/10/30 03:07:37;;;;;;;2.70;1.40;;;;;;;15.11;30.63;101854.34;5094707;28;20040;-54
2023/10/30 03:10:03;;;;;;;2.85;1.50;;;;;;;15.12;31.78;101858.69;5094486;28;20016;-54
2023/10/30 03:12:30;;;;;;;1.30;1.20;;;;;;;14.90;31.42;101865.34;5094548;28;20045;-56
2023/10/30 03:14:56;;;;;;;3.67;2.40;;;;;;;14.81;30.66;101861.22;5091524;28;20103;-55
2023/10/30 03:17:22;;;;;;;5.00;3.42;;;;;;;15.05;31.57;101868.66;5090977;28;20028;-54
2023/10/30 03:19:48;;;;;;;4.20;3.80;;;;;;;14.63;31.78;101868.06;5086652;28;20032;-54
2023/10/30 03:22:15;;;;;;;5.20;3.38;;;;;;;14.85;32.69;101873.25;5073991;28;20024;-54
2023/10/30 03:24:41;;;;;;;6.32;3.90;;;;;;;14.67;33.51;101871.19;5075464;28;20084;-54
2023/10/30 03:27:07;;;;;;;4.90;3.92;;;;;;;14.33;33.25;101869.50;5083890;28;20040;-54
2023/10/30 03:29:37;;;;;;;5.18;3.92;;;;;;;14.22;34.53;101865.53;5080016;28;20035;-55
2023/10/30 03:32:03;;;;;;;4.70;3.20;;;;;;;14.10;33.59;101875.22;5083167;28;20031;-54
2023/10/30 03:34:29;;;;;;;5.40;4.10;;;;;;;13.87;34.61;101865.66;5094321;28;20035;-55
2023/10/30 03:36:56;;;;;;;5.47;3.60;;;;;;;14.10;35.18;101864.47;5093677;28;20115;-53
2023/10/30 03:39:22;;;;;;;4.78;3.08;;;;;;;13.97;34.58;101866.09;5094001;28;20031;-54
2023/10/30 03:41:50;;;;;;;4.70;3.05;;;;;;;14.26;35.20;101872.16;5094092;28;20028;-55
2023/10/30 03:44:19;;;;;;;2.95;2.45;;;;;;;14.04;34.80;101873.34;5093824;28;20024;-54
2023/10/30 03:46:45;;;;;;;2.95;2.05;;;;;;;13.94;35.08;101877.28;5093518;28;20500;-53
2023/10/30 03:49:12;;;;;;;2.63;2.08;;;;;;;13.80;35.49;101883.66;5093844;28;20028;-53
2023/10/30 03:51:38;;;;;;;3.83;2.47;;;;;;;13.81;36.01;101887.16;5093505;28;20074;-55
2023/10/30 03:54:05;;;;;;;3.03;2.10;;;;;;;13.63;36.73;101883.16;5093597;28;20052;-57
2023/10/30 03:56:31;;;;;;;4.35;3.65;;;;;;;13.57;36.25;101881.28;5093264;28;20027;-54
2023/10/30 03:58:57;;;;;;;3.65;3.03;;;;;;;13.54;36.91;101887.06;5093395;28;20408;-55
2023/10/30 04:01:23;;;;;;;4.68;3.28;;;;;;;13.44;37.57;101887.44;5093594;28;20024;-54
2023/10/30 04:03:50;;;;;;;4.95;4.00;;;;;;;13.37;37.40;101880.34;5092999;28;20028;-54
2023/10/30 04:06:16;;;;;;;6.35;5.28;;;;;;;13.26;37.10;101883.59;5093516;28;20024;-54
2023/10/30 04:08:42;;;;;;;9.05;5.60;;;;;;;13.16;37.26;101884.78;5086666;28;20452;-55
2023/10/30 04:11:11;;;;;;;7.03;5.25;;;;;;;13.08;38.64;101882.22;5074180;28;20024;-54
2023/10/30 04:13:37;;;;;;;10.90;6.57;;;;;;;13.24;38.82;101886.50;5093129;28;20044;-54
2023/10/30 04:16:04;;;;;;;6.72;5.50;;;;;;;12.97;38.46;101888.16;5093405;28;20097;-54
2023/10/30 04:18:31;;;;;;;9.18;7.47;;;;;;;12.86;38.41;101881.44;5092282;28;20035;-54
2023/10/30 04:20:57;;;;;;;10.25;7.78;;;;;;;12.83;38.69;101894.47;5093214;28;20023;-54
2023/10/30 04:23:23;;;;;;;10.30;7.88;;;;;;;12.72;39.24;101893.13;5093129;28;20039;-54
2023/10/30 04:25:49;;;;;;;7.07;5.43;;;;;;;12.72;39.35;101893.13;5092317;28;20024;-54
2023/10/30 04:28:16;;;;;;;8.38;6.63;;;;;;;12.66;40.42;101888.56;5092386;28;20034;-52
2023/10/30 04:30:42;;;;;;;8.52;6.10;;;;;;;12.49;40.60;101896.00;5093103;28;20390;-54
2023/10/30 04:33:08;;;;;;;7.45;5.32;;;;;;;12.43;40.58;101908.34;5092508;28;20246;-54
2023/10/30 04:35:34;;;;;;;6.65;4.65;;;;;;;12.39;40.24;101904.41;5092886;28;20055;-53
2023/10/30 04:38:01;;;;;;;5.10;3.90;;;;;;;12.38;39.81;101907.28;5093087;28;20024;-54
2023/10/30 04:40:27;;;;;;;3.67;3.10;;;;;;;12.35;40.15;101900.44;5092638;28;20024;-55
2023/10/30 04:42:53;;;;;;;5.10;3.40;;;;;;;12.32;40.62;101900.00;5092747;28;20024;-53
2023/10/30 04:45:19;;;;;;;4.10;3.63;;;;;;;12.17;40.56;101899.25;5092324;28;20117;-54
2023/10/30 04:47:46;;;;;;;3.53;2.88;;;;;;;12.16;40.67;101903.78;5092628;28;20094;-53
2023/10/30 04:50:12;;;;;;;3.33;2.70;;;;;;;12.07;41.58;101903.06;5090431;28;20026;-53
2023/10/30 04:52:39;;;;;;;3.53;2.35;;;;;;;12.04;41.45;101907.94;5071649;28;20085;-54
2023/10/30 04:55:05;;;;;;;3.25;2.40;;;;;;;11.96;42.02;101908.09;5082156;28;20031;-53
2023/10/30 04:57:32;;;;;;;2.65;2.00;;;;;;;11.89;41.86;101908.00;5083893;28;20020;-54
2023/10/30 04:59:58;;;;;;;1.95;1.73;;;;;;;11.83;41.83;101904.22;5092025;28;20465;-53
2023/10/30 05:02:24;;;;;;;1.98;1.50;;;;;;;11.77;41.89;101904.94;5092106;28;20120;-52
2023/10/30 05:04:51;;;;;;;2.35;1.60;;;;;;;11.68;42.69;101908.75;5091537;28;20032;-53
2023/10/30 05:07:17;;;;;;;2.47;1.58;;;;;;;11.56;41.84;101910.25;5092155;28;20028;-52
2023/10/30 05:09:43;;;;;;;2.90;1.58;;;;;;;11.59;41.65;101915.22;5073942;28;20378;-52
2023/10/30 05:12:09;;;;;;;2.40;1.58;;;;;;;11.61;41.45;101910.53;5072111;28;20509;-53
2023/10/30 05:14:36;;;;;;;1.40;1.25;;;;;;;11.62;41.36;101918.38;5083371;28;20551;-54
2023/10/30 05:17:02;;;;;;;3.00;1.45;;;;;;;11.62;41.09;101917.53;5091786;28;20085;-54
2023/10/30 05:19:29;;;;;;;2.63;1.48;;;;;;;11.54;41.30;101925.66;5088666;28;20508;-53
2023/10/30 05:21:55;;;;;;;2.50;1.45;;;;;;;11.50;41.26;101922.56;5088045;28;20451;-53
2023/10/30 05:24:23;;;;;;;2.17;1.52;;;;;;;11.43;41.56;101926.13;5087836;28;20060;-53
2023/10/30 05:26:52;;;;;;;2.25;1.48;;;;;;;11.42;41.64;101929.84;5089059;28;20031;-53
2023/10/30 05:29:19;;;;;;;2.88;1.95;;;;;;;11.31;42.02;101937.31;5071627;28;20032;-53
2023/10/30 05:31:45;;;;;;;2.03;1.70;;;;;;;11.26;42.26;101933.53;5072217;28;20485;-54
2023/10/30 05:34:11;;;;;;;2.22;1.77;;;;;;;11.24;42.93;101936.41;5071957;28;20086;-54
2023/10/30 05:36:37;;;;;;;2.95;1.77;;;;;;;11.16;42.91;101935.63;5079991;28;20051;-54
2023/10/30 05:39:04;;;;;;;3.42;2.58;;;;;;;11.13;43.32;101938.69;5091794;28;20072;-54
2023/10/30 05:41:30;;;;;;;2.90;2.30;;;;;;;11.10;43.49;101942.56;5091911;28;20055;-54
2023/10/30 05:43:57;;;;;;;2.40;1.90;;;;;;;11.07;44.05;101929.53;5091844;28;20540;-53
2023/10/30 05:46:23;;;;;;;2.13;1.67;;;;;;;11.08;44.84;101937.38;5091625;28;20504;-54
2023/10/30 05:48:49;;;;;;;3.00;1.98;;;;;;;10.96;45.60;101935.34;5091122;28;20032;-54
2023/10/30 05:51:16;;;;;;;2.42;1.90;;;;;;;10.90;45.77;101941.44;5091178;28;20024;-54
2023/10/30 05:53:43;;;;;;;2.95;1.92;;;;;;;10.86;46.13;101932.09;5072964;28;20393;-54
2023/10/30 05:56:09;;;;;;;2.67;1.92;;;;;;;10.77;46.39;101934.84;5091631;28;20107;-54
2023/10/30 05:58:35;;;;;;;2.42;2.22;;;;;;;10.73;47.70;101930.03;5085260;28;20020;-54
2023/10/30 06:01:01;;;;;;;2.58;2.17;;;;;;;10.72;47.45;101934.56;5086972;28;20039;-54
2023/10/30 06:03:27;;;;;;;3.10;2.05;;;;;;;10.70;47.58;101927.69;5089439;28;20086;-54
2023/10/30 06:05:54;;;;;;;3.47;2.75;;;;;;;10.67;48.06;101933.44;5092029;28;20024;-53
2023/10/30 06:08:23;;;;;;;4.85;3.42;;;;;;;10.49;48.05;101925.69;5090729;28;20032;-53
2023/10/30 06:10:50;;;;;;;5.15;3.30;;;;;;;10.50;47.28;101927.38;5091396;28;20044;-53
2023/10/30 06:13:17;;;;;;;3.67;2.92;;;;;;;10.46;46.01;101931.41;5091637;28;20052;-54
2023/10/30 06:15:43;;;;;;;3.15;2.47;;;;;;;10.47;46.01;101927.72;5090786;28;20020;-53
2023/10/30 06:18:09;;;;;;;2.92;2.10;;;;;;;10.37;45.28;101932.47;5090724;28;20031;-52
2023/10/30 06:20:35;;;;;;;3.58;1.85;;;;;;;10.35;44.14;101923.78;5090701;28;20035;-53
2023/10/30 06:23:01;;;;;;;1.70;1.30;;;;;;;10.48;43.11;101926.69;5090983;28;20024;-52
2023/10/30 06:25:28;;;;;;;2.28;1.40;;;;;;;10.36;42.83;101920.94;5091217;28;20020;-53
2023/10/30 06:27:55;;;;;;;1.33;1.23;;;;;;;10.42;42.68;101927.41;5091078;28;20028;-53
2023/10/30 06:30:22;;;;;;;1.85;1.20;;;;;;;10.50;42.39;101922.84;5091101;28;20057;-50
2023/10/30 06:32:48;;;;;;;1.63;1.20;;;;;;;10.49;42.37;101928.34;5076713;28;20081;-53
2023/10/30 06:35:14;;;;;;;1.80;1.17;;;;;;;10.43;42.79;101927.22;5073782;28;20650;-53
2023/10/30 06:37:40;;;;;;;1.00;0.88;;;;;;;10.45;43.16;101924.41;5084704;28;20105;-53
2023/10/30 06:40:07;;;;;;;2.67;1.25;;;;;;;10.43;42.81;101929.06;5091989;28;20032;-53
2023/10/30 06:42:34;;;;;;;1.23;1.08;;;;;;;10.39;42.60;101930.47;5090918;28;20024;-53
2023/10/30 06:45:00;;;;;;;1.42;1.20;;;;;;;10.31;42.62;101926.81;5074672;28;20036;-54
2023/10/30 06:47:27;;;;;;;1.70;1.50;;;;;;;10.50;42.63;101925.53;5074754;28;20052;-53
2023/10/30 06:49:54;;;;;;;3.10;2.50;;;;;;;10.37;42.55;101927.94;5085705;28;20221;-52
2023/10/30 06:52:20;;;;;;;3.08;2.38;;;;;;;10.29;42.10;101930.69;5094653;28;20093;-53
2023/10/30 06:54:46;;;;;;;2.58;1.63;;;;;;;10.34;42.13;101924.81;5094547;28;20040;-51
2023/10/30 06:57:12;;;;;;;2.50;1.70;;;;;;;10.32;42.68;101931.16;5094566;28;20032;-51
2023/10/30 06:59:38;;;;;;;1.60;1.20;;;;;;;10.29;42.40;101931.53;5094019;28;20071;-53
2023/10/30 07:02:05;;;;;;;1.23;1.10;;;;;;;10.23;42.81;101926.88;5094497;28;20532;-53
2023/10/30 07:04:32;;;;;;;2.17;1.30;;;;;;;10.21;42.94;101928.84;5094303;28;20078;-52
2023/10/30 07:06:58;;;;;;;2.20;1.40;;;;;;;10.16;43.67;101931.25;5093689;28;20035;-52
2023/10/30 07:09:24;;;;;;;1.48;1.15;;;;;;;10.19;43.33;101922.84;5093861;28;20027;-53
2023/10/30 07:11:51;;;;;;;1.73;1.23;;;;;;;10.18;44.00;101931.06;5094204;28;20359;-53
2023/10/30 07:14:17;;;;;;;1.98;1.20;;;;;;;10.24;43.84;101938.41;5089294;28;20032;-52
2023/10/30 07:16:43;;;;;;;1.90;1.60;;;;;;;10.32;44.38;101931.16;5082474;28;20023;-51
2023/10/30 07:19:10;;;;;;;2.38;1.90;;;;;;;10.23;45.18;101942.94;5091904;28;20024;-51
2023/10/30 07:21:36;;;;;;;1.58;1.30;;;;;;;10.03;45.75;101929.13;5088503;28;20107;-52
2023/10/30 07:24:03;;;;;;;2.60;1.50;;;;;;;10.02;45.76;101940.84;5093798;28;20024;-50
2023/10/30 07:26:29;;;;;;;2.67;1.60;;;;;;;9.91;46.46;101938.56;5093759;28;20024;-52
2023/10/30 07:28:55;;;;;;;2.60;1.70;;;;;;;9.98;46.44;101938.69;5093593;28;20024;-53
2023/10/30 07:31:22;;;;;;;3.65;1.70;;;;;;;9.88;46.72;101941.56;5091290;28;20059;-52
2023/10/30 07:33:51;;;;;;;2.40;1.48;;;;;;;9.80;46.48;101941.63;5084923;28;20032;-52
2023/10/30 07:36:17;;;;;;;2.72;1.17;;;;;;;9.76;45.43;101941.13;5090254;28;20032;-52
2023/10/30 07:38:44;;;;;;;1.50;1.40;;;;;;;9.88;45.32;101938.06;5092239;28;20032;-53
2023/10/30 07:41:10;;;;;;;2.97;1.83;;;;;;;9.81;46.00;101937.94;5078356;28;20020;-51
2023/10/30 07:43:37;;;;;;;2.83;1.90;;;;;;;9.79;46.00;101939.97;5093614;28;20026;-51
2023/10/30 07:46:03;;;;;;;2.78;1.45;;;;;;;9.77;45.88;101928.59;5093431;28;20050;-53
2023/10/30 07:48:29;;;;;;;1.98;1.65;;;;;;;9.73;46.91;101936.13;5092370;28;20050;-52
2023/10/30 07:50:56;;;;;;;1.50;1.23;;;;;;;9.50;45.46;101935.22;5075004;28;20463;-51
2023/10/30 07:53:22;;;;;;;2.25;1.30;;;;;;;9.58;45.51;101945.88;5093236;28;20055;-53
2023/10/30 07:55:49;;;;;;;1.73;1.20;;;;;;;9.59;45.14;101939.53;5093659;28;20481;-53
2023/10/30 07:58:16;;;;;;;2.95;1.83;;;;;;;9.42;48.04;101932.56;5093213;28;20027;-51
2023/10/30 08:00:42;;;;;;;6.13;1.65;;;;;;;9.53;48.38;101945.56;5093156;28;20031;-54
2023/10/30 08:03:08;;;;;;;2.72;1.52;;;;;;;9.56;47.98;101937.22;5092857;28;20032;-53
2023/10/30 08:05:34;;;;;;;3.03;1.80;;;;;;;9.45;48.58;101937.59;5093140;28;20496;-53
2023/10/30 08:08:01;;;;;;;3.22;1.83;;;;;;;9.48;49.32;101937.22;5092955;28;20028;-53
2023/10/30 08:10:27;;;;;;;3.15;2.13;;;;;;;9.43;50.03;101937.72;5093003;28;20494;-49
2023/10/30 08:12:53;;;;;;;3.58;2.35;;;;;;;9.42;50.22;101938.75;5091681;28;20482;-52
2023/10/30 08:15:20;;;;;;;2.35;1.83;;;;;;;9.35;50.73;101939.59;5078765;28;20021;-53
2023/10/30 08:17:46;;;;;;;3.50;1.85;;;;;;;9.32;50.59;101938.09;5092778;28;20055;-53
2023/10/30 08:20:13;;;;;;;2.50;1.80;;;;;;;9.30;51.27;101939.28;5087847;28;20016;-52
2023/10/30 08:22:39;;;;;;;2.53;1.67;;;;;;;9.25;51.76;101942.47;5092017;28;20038;-52
2023/10/30 08:25:06;;;;;;;1.67;1.48;;;;;;;9.16;52.08;101941.66;5092749;28;20153;-51
2023/10/30 08:27:33;;;;;;;2.38;1.67;;;;;;;9.20;52.11;101940.28;5092352;28;20039;-51
2023/10/30 08:30:00;;;;;;;3.50;2.25;;;;;;;9.16;53.09;101941.66;5092464;28;20024;-53
2023/10/30 08:32:26;;;;;;;2.70;2.05;;;;;;;9.03;53.21;101935.16;5091539;28;20025;-52
2023/10/30 08:34:54;;;;;;;3.60;2.00;;;;;;;9.01;53.76;101947.84;5091365;28;20032;-53
2023/10/30 08:37:21;;;;;;;2.58;2.00;;;;;;;8.85;54.46;101941.50;5090352;28;20031;-51
2023/10/30 08:39:47;;;;;;;3.88;2.05;;;;;;;9.13;53.74;101942.00;5091750;28;20463;-53
2023/10/30 08:42:13;;;;;;;3.05;1.90;;;;;;;8.91;54.09;101935.50;5080544;28;20409;-53
2023/10/30 08:44:39;;;;;;;2.28;1.75;;;;;;;9.04;54.56;101944.81;5092251;28;20036;-49
2023/10/30 08:47:06;;;;;;;2.25;1.55;;;;;;;8.90;54.51;101936.50;5092519;28;20035;-52
2023/10/30 08:49:32;;;;;;;1.70;1.60;;;;;;;8.70;54.92;101933.34;5092263;28;20052;-52
2023/10/30 08:51:59;;;;;;;2.72;1.90;;;;;;;8.89;54.80;101936.69;5092207;28;20028;-53
2023/10/30 08:54:26;;;;;;;2.10;1.90;;;;;;;8.68;55.02;101932.69;5091849;28;20035;-52
2023/10/30 08:56:52;;;;;;;3.67;3.38;;;;;;;8.95;55.05;101938.69;5092213;28;20459;-52
2023/10/30 08:59:18;;;;;;;4.80;2.80;;;;;;;8.67;55.63;101930.19;5091860;28;20120;-51
2023/10/30 09:01:45;;;;;;;4.78;2.83;;;;;;;8.80;55.55;101933.19;5091796;28;20024;-49
2023/10/30 09:04:11;;;;;;;3.47;2.58;;;;;;;8.85;55.51;101938.00;5091798;28;20027;-52
2023/10/30 09:06:38;;;;;;;2.95;2.45;;;;;;;8.70;55.84;101941.34;5091735;28;20028;-51
2023/10/30 09:09:05;;;;;;;3.20;2.83;;;;;;;8.70;56.10;101928.00;5092149;28;20036;-51
2023/10/30 09:11:31;;;;;;;3.88;2.60;;;;;;;8.67;56.22;101933.69;5092334;28;20404;-52
2023/10/30 09:13:58;;;;;;;3.13;2.10;;;;;;;8.51;56.80;101930.19;5089012;28;20047;-49
2023/10/30 09:16:24;;;;;;;4.10;2.30;;;;;;;8.54;56.81;101932.50;5088569;28;20449;-51
2023/10/30 09:18:52;;;;;;;3.80;2.40;;;;;;;8.77;56.06;101917.47;5087499;28;20025;-52
2023/10/30 09:21:20;;;;;;;6.68;2.97;;;;;;;8.64;56.42;101931.34;5091657;28;20024;-52
2023/10/30 09:23:47;;;;;;;3.30;2.88;;;;;;;8.42;57.13;101929.31;5091007;28;20034;-50
2023/10/30 09:26:14;;;;;;;6.55;2.40;;;;;;;8.34;57.79;101921.28;5091473;28;20541;-52
2023/10/30 09:28:41;;;;;;;3.38;2.22;;;;;;;7.99;59.04;101923.19;5091407;28;20097;-51
2023/10/30 09:31:07;;;;;;;4.50;2.92;;;;;;;8.28;58.29;101928.13;5086440;28;20039;-50
2023/10/30 09:33:33;;;;;;;3.00;2.10;;;;;;;8.09;58.86;101923.91;5071320;28;20060;-51
2023/10/30 09:36:00;;;;;;;2.95;1.95;;;;;;;8.18;58.87;101924.75;5085182;28;21920;-48
2023/10/30 09:38:26;;;;;;;4.50;2.30;;;;;;;8.32;58.22;101923.28;5091201;28;20081;-50
2023/10/30 09:41:07;;;;;;;3.50;2.80;;;;;;;8.23;58.27;101918.94;5082134;28;20470;-51
2023/10/30 09:43:34;;;;;;;4.38;3.15;;;;;;;8.20;58.52;101917.41;5071788;28;20028;-49
2023/10/30 09:46:02;;;;;;;2.78;2.40;;;;;;;8.11;58.44;101921.91;5087197;28;20069;-51
2023/10/30 09:48:32;;;;;;;3.00;2.00;;;;;;;8.14;58.67;101916.25;5090904;28;20039;-48
2023/10/30 09:50:59;;;;;;;3.63;1.80;;;;;;;8.04;58.66;101914.72;5091106;28;20508;-51
2023/10/30 09:53:28;;;;;;;2.97;1.70;;;;;;;7.94;59.33;101914.88;5091359;28;20072;-49
2023/10/30 09:55:56;;;;;;;3.30;1.70;;;;;;;8.07;58.69;101919.72;5091493;28;20474;-48
2023/10/30 09:58:23;;;;;;;3.10;1.70;;;;;;;8.11;58.68;101913.91;5090715;28;20040;-51
2023/10/30 10:00:50;;;;;;;3.55;1.55;;;;;;;8.02;58.75;101909.56;5091467;28;20074;-48
2023/10/30 10:03:17;;;;;;;2.15;1.50;;;;;;;8.07;58.30;101909.91;5091511;28;20024;-52
2023/10/30 10:05:43;;;;;;;2.67;1.40;;;;;;;7.99;58.29;101917.03;5091935;28;20047;-52
2023/10/30 10:08:10;;;;;;;1.70;1.42;;;;;;;8.23;57.51;101918.94;5090915;28;20028;-48
2023/10/30 10:10:56;;;;;;;2.63;1.35;;;;;;;8.34;57.17;101915.97;5073207;28;20036;-52
2023/10/30 10:13:23;;;;;;;4.78;1.45;;;;;;;8.29;57.37;101918.28;5080106;28;20059;-51
2023/10/30 10:15:51;;;;;;;2.30;1.20;;;;;;;8.28;57.67;101916.63;5075001;28;20042;-48
2023/10/30 10:18:29;;;;;;;3.63;1.48;;;;;;;8.29;57.59;101915.63;5078760;28;20031;-49
2023/10/30 10:21:04;;;;;;;2.95;1.65;;;;;;;8.17;57.66;101907.94;5094915;28;20067;-48
2023/10/30 10:23:32;;;;;;;;;;;;;;;8.29;57.37;101910.28;5092140;28;20024;-47
2023/10/30 10:26:04;;;;;;;4.65;1.63;;;;;;;8.19;57.80;101911.25;5095136;28;19958;-50
2023/10/30 10:28:32;;;;;;;2.50;1.58;;;;;;;8.15;58.01;101907.22;5094306;28;20149;-49
2023/10/30 10:30:58;;;;;;;3.53;1.50;;;;;;;8.44;57.30;101900.66;5086298;28;20401;-50
2023/10/30 10:33:30;;;;;;;2.03;1.40;;;;;;;8.27;57.29;101907.75;5094604;28;20078;-50
2023/10/30 10:36:04;;;;;;;2.28;1.70;;;;;;;8.15;57.50;101904.56;5094985;28;20028;-47
2023/10/30 10:38:35;;;;;;;7.03;1.60;;;;;;;8.19;57.32;101905.91;5092792;28;20031;-51
2023/10/30 10:41:03;;;;;;;2.15;1.38;;;;;;;8.45;55.88;101897.00;5096073;28;20028;-50
2023/10/30 10:43:31;;;;;;;3.88;1.48;;;;;;;8.36;55.85;101892.63;5094910;28;20032;-51
2023/10/30 10:45:59;;;;;;;1.90;1.35;;;;;;;8.28;55.26;101888.09;5094159;28;20108;-51
2023/10/30 10:48:27;;;;;;;3.33;1.65;;;;;;;8.43;56.02;101888.28;5094681;28;20370;-49
2023/10/30 10:50:57;;;;;;;2.28;1.40;;;;;;;8.06;57.66;101892.25;5094323;28;20112;-51
2023/10/30 10:53:27;;;;;;;2.92;1.88;;;;;;;8.25;57.31;101887.59;5094643;28;20040;-51
2023/10/30 10:56:04;;;;;;;3.15;1.65;;;;;;;8.53;56.48;101883.63;5095366;28;20056;-49
2023/10/30 10:58:43;;;;;;;2.78;1.50;;;;;;;8.65;55.29;101892.97;5094182;28;20036;-51
2023/10/30 11:01:17;;;;;;;2.53;1.63;;;;;;;8.45;55.68;101888.97;5082920;28;20059;-54
2023/10/30 11:03:45;;;;;;;2.85;1.85;;;;;;;8.21;55.55;101887.91;5094813;28;20031;-48
2023/10/30 11:06:13;;;;;;;2.08;1.40;;;;;;;8.29;55.20;101878.28;5093897;28;20477;-50
2023/10/30 11:08:46;;;;;;;3.35;1.98;;;;;;;8.36;54.36;101882.78;5094145;28;20464;-49
2023/10/30 11:11:30;;;;;;;2.67;1.60;;;;;;;8.59;54.86;101890.13;5094140;28;20059;-49
2023/10/30 11:14:11;;;;;;;2.58;1.58;;;;;;;8.73;55.96;101889.47;5081442;28;20035;-50
2023/10/30 11:16:48;;;;;;;3.40;1.58;;;;;;;8.60;57.21;101887.28;5114887;28;20102;-50
2023/10/30 11:19:22;;;;;;;1.80;1.40;;;;;;;8.69;57.14;101891.63;5078599;28;20074;-49
2023/10/30 11:21:49;;;;;;;2.45;1.50;;;;;;;8.59;57.39;101888.28;5093202;28;20024;-47
2023/10/30 11:24:44;;;;;;;1.60;1.50;;;;;;;8.87;57.49;101890.63;5093500;28;20028;-48
2023/10/30 11:27:25;;;;;;;4.28;1.15;;;;;;;9.03;54.80;101885.25;5094027;28;20494;-47
2023/10/30 11:30:00;;;;;;;3.15;1.70;;;;;;;8.85;55.31;101881.94;5092808;28;20040;-46